createdAt,value
2019-06-07T00:01:11.570Z,15.97
2019-06-07T00:02:45.933Z,16.93
2019-06-07T00:04:21.552Z,16.93
2019-06-07T00:05:56.082Z,17.60
2019-06-07T00:07:31.018Z,17.10
2019-06-07T00:09:08.099Z,16.93
2019-06-07T00:10:44.229Z,18.10
2019-06-07T00:12:21.591Z,17.63
2019-06-07T00:13:55.288Z,18.13
2019-06-07T00:15:29.928Z,17.87
2019-06-07T00:17:04.894Z,17.87
2019-06-07T00:18:39.250Z,18.37
2019-06-07T00:20:17.523Z,18.20
2019-06-07T00:22:16.008Z,17.70
2019-06-07T00:23:27.905Z,19.10
2019-06-07T00:25:02.268Z,18.57
2019-06-07T00:26:57.194Z,18.70
2019-06-07T00:28:13.936Z,17.83
2019-06-07T00:29:49.997Z,19.27
2019-06-07T00:31:24.918Z,18.87
2019-06-07T00:33:00.070Z,17.63
2019-06-07T00:34:34.429Z,19.40
2019-06-07T00:36:10.082Z,18.73
2019-06-07T00:37:45.473Z,18.87
2019-06-07T00:39:25.249Z,17.07
2019-06-07T00:40:56.832Z,18.10
2019-06-07T00:42:32.181Z,19.23
2019-06-07T00:44:06.879Z,17.43
2019-06-07T00:45:41.849Z,17.87
2019-06-07T00:47:18.767Z,17.97
2019-06-07T00:48:53.198Z,17.67
2019-06-07T00:50:27.649Z,18.00
2019-06-07T00:52:02.681Z,17.70
2019-06-07T00:53:37.289Z,16.73
2019-06-07T00:55:14.291Z,17.90
2019-06-07T00:56:48.668Z,17.27
2019-06-07T00:58:27.474Z,16.33
2019-06-07T00:59:59.725Z,16.97
2019-06-07T01:01:34.955Z,17.27
2019-06-07T01:03:09.327Z,17.50
2019-06-07T01:04:44.306Z,16.73
2019-06-07T01:06:22.652Z,15.30
2019-06-07T01:07:55.682Z,17.57
2019-06-07T01:09:30.061Z,16.57
2019-06-07T01:11:05.172Z,17.13
2019-06-07T01:12:39.537Z,16.83
2019-06-07T01:14:18.451Z,15.90
2019-06-07T01:15:50.923Z,16.07
2019-06-07T01:17:41.688Z,16.70
2019-06-07T01:19:04.276Z,17.17
2019-06-07T01:20:39.252Z,17.27
2019-06-07T01:22:16.409Z,18.20
2019-06-07T01:24:11.935Z,17.23
2019-06-07T01:25:27.059Z,19.23
2019-06-07T01:27:03.373Z,17.77
2019-06-07T01:28:37.741Z,16.23
2019-06-07T01:30:13.429Z,20.23
2019-06-07T01:31:47.913Z,21.37
2019-06-07T01:33:25.668Z,22.07
2019-06-07T01:34:58.917Z,22.93
2019-06-07T01:36:33.926Z,22.07
2019-06-07T01:38:08.586Z,22.00
2019-06-07T01:39:43.633Z,19.60
2019-06-07T01:41:21.542Z,21.50
2019-06-07T01:42:54.651Z,23.10
2019-06-07T01:44:31.052Z,20.80
2019-06-07T01:46:05.901Z,21.13
2019-06-07T01:47:40.500Z,20.93
2019-06-07T01:49:15.461Z,22.03
2019-06-07T01:50:49.837Z,22.80
2019-06-07T01:52:26.582Z,21.20
2019-06-07T01:54:48.831Z,22.87
2019-06-07T01:55:37.841Z,23.97
2019-06-07T01:57:31.046Z,24.43
2019-06-07T01:58:48.894Z,25.63
2019-06-07T02:00:25.986Z,25.33
2019-06-07T02:02:00.416Z,24.83
2019-06-07T02:03:35.113Z,24.67
2019-06-07T02:05:11.047Z,25.17
2019-06-07T02:06:45.764Z,24.27
2019-06-07T02:08:22.208Z,25.53
2019-06-07T02:09:56.889Z,24.90
2019-06-07T02:11:33.474Z,24.63
2019-06-07T02:13:07.978Z,26.27
2019-06-07T02:14:42.949Z,26.07
2019-06-07T02:16:17.366Z,25.27
2019-06-07T02:17:52.340Z,24.17
2019-06-07T02:19:31.161Z,24.20
2019-06-07T02:21:03.786Z,24.17
2019-06-07T02:22:38.235Z,24.87
2019-06-07T02:24:13.542Z,24.00
2019-06-07T02:25:50.440Z,24.57
2019-06-07T02:27:26.068Z,23.33
2019-06-07T02:29:01.775Z,24.43
2019-06-07T02:30:47.545Z,25.40
2019-06-07T02:32:12.878Z,24.47
2019-06-07T02:33:47.847Z,23.60
2019-06-07T02:35:25.627Z,25.07
2019-06-07T02:36:58.886Z,23.00
2019-06-07T02:38:37.490Z,21.67
2019-06-07T02:40:10.826Z,20.77
2019-06-07T02:41:45.212Z,23.03
2019-06-07T02:43:20.308Z,24.27
2019-06-07T02:44:54.744Z,22.73
2019-06-07T02:46:39.938Z,22.93
2019-06-07T02:48:06.148Z,22.27
2019-06-07T02:49:42.523Z,25.17
2019-06-07T02:51:17.940Z,24.87
2019-06-07T02:52:53.027Z,24.70
2019-06-07T02:54:33.664Z,25.13
2019-06-07T02:56:37.867Z,25.00
2019-06-07T02:57:42.092Z,23.53
2019-06-07T02:59:17.703Z,21.70
2019-06-07T03:01:06.679Z,20.23
2019-06-07T03:02:34.777Z,21.63
2019-06-07T03:04:06.328Z,21.20
2019-06-07T03:05:43.908Z,21.93
2019-06-07T03:07:18.577Z,21.43
2019-06-07T03:08:55.142Z,21.90
2019-06-07T03:10:31.722Z,19.43
2019-06-07T03:12:17.551Z,19.10
2019-06-07T03:13:52.971Z,19.17
2019-06-07T03:15:38.729Z,20.63
2019-06-07T03:17:35.276Z,20.03
2019-06-07T03:19:22.119Z,19.47
2019-06-07T03:21:05.382Z,20.67
2019-06-07T03:22:41.462Z,22.73
2019-06-07T03:24:16.551Z,22.07
2019-06-07T03:25:52.554Z,22.33
2019-06-07T03:27:36.237Z,21.97
2019-06-07T03:29:04.078Z,20.43
2019-06-07T03:30:57.122Z,19.97
2019-06-07T03:32:15.731Z,21.30
2019-06-07T03:33:50.995Z,19.03
2019-06-07T03:35:27.614Z,20.60
2019-06-07T03:37:02.127Z,19.37
2019-06-07T03:38:37.632Z,19.03
2019-06-07T03:40:13.743Z,19.33
2019-06-07T03:42:05.055Z,18.60
2019-06-07T03:43:24.990Z,20.70
2019-06-07T03:44:59.598Z,18.60
2019-06-07T03:46:40.584Z,19.07
2019-06-07T03:48:10.720Z,18.87
2019-06-07T03:49:45.937Z,19.23
2019-06-07T03:51:25.092Z,20.30
2019-06-07T03:52:57.233Z,20.47
2019-06-07T03:54:32.132Z,20.77
2019-06-07T03:56:08.855Z,19.43
2019-06-07T03:58:30.182Z,17.57
2019-06-07T03:59:20.318Z,18.20
2019-06-07T04:00:54.711Z,18.90
2019-06-07T04:02:30.352Z,19.60
2019-06-07T04:04:05.607Z,19.83
2019-06-07T04:05:43.459Z,23.37
2019-06-07T04:07:16.818Z,21.20
2019-06-07T04:08:51.824Z,24.10
2019-06-07T04:10:44.638Z,25.53
2019-06-07T04:12:02.974Z,22.90
2019-06-07T04:13:42.246Z,22.93
2019-06-07T04:15:14.520Z,23.20
2019-06-07T04:16:48.934Z,22.80
2019-06-07T04:18:24.344Z,24.20
2019-06-07T04:19:58.808Z,24.00
2019-06-07T04:21:35.110Z,23.67
2019-06-07T04:23:27.210Z,22.23
2019-06-07T04:24:46.751Z,23.80
2019-06-07T04:26:21.162Z,23.13
2019-06-07T04:27:56.144Z,22.90
2019-06-07T04:29:33.824Z,23.33
2019-06-07T04:31:07.675Z,22.80
2019-06-07T04:32:45.056Z,24.87
2019-06-07T04:34:19.062Z,22.63
2019-06-07T04:35:55.099Z,23.27
2019-06-07T04:37:33.315Z,22.00
2019-06-07T04:39:09.248Z,22.20
2019-06-07T04:40:45.240Z,23.17
2019-06-07T04:42:22.369Z,23.00
2019-06-07T04:44:00.944Z,22.60
2019-06-07T04:45:41.963Z,21.13
2019-06-07T04:47:16.819Z,22.80
2019-06-07T04:48:53.699Z,22.57
2019-06-07T04:50:34.298Z,22.83
2019-06-07T04:52:08.608Z,21.60
2019-06-07T04:53:44.623Z,21.07
2019-06-07T04:55:19.469Z,21.53
2019-06-07T04:56:55.679Z,23.37
2019-06-07T04:58:31.479Z,21.00
2019-06-07T05:00:45.053Z,21.20
2019-06-07T05:01:44.468Z,22.37
2019-06-07T05:03:20.387Z,22.47
2019-06-07T05:04:55.210Z,21.80
2019-06-07T05:06:34.839Z,21.93
2019-06-07T05:08:18.265Z,21.63
2019-06-07T05:09:44.909Z,20.40
2019-06-07T05:11:19.720Z,21.43
2019-06-07T05:12:55.509Z,21.37
2019-06-07T05:14:32.525Z,21.03
2019-06-07T05:16:07.836Z,19.87
2019-06-07T05:17:44.960Z,21.73
2019-06-07T05:19:20.319Z,21.03
2019-06-07T05:20:55.765Z,20.63
2019-06-07T05:22:34.206Z,19.53
2019-06-07T05:24:10.633Z,20.43
2019-06-07T05:25:45.545Z,20.73
2019-06-07T05:27:20.353Z,20.17
2019-06-07T05:28:56.017Z,19.33
2019-06-07T05:32:15.162Z,20.13
2019-06-07T05:33:49.969Z,20.10
2019-06-07T05:35:26.005Z,21.93
2019-06-07T05:37:11.667Z,19.50
2019-06-07T05:38:41.076Z,19.63
2019-06-07T05:40:21.394Z,20.67
2019-06-07T05:41:57.182Z,19.50
2019-06-07T05:43:35.032Z,21.43
2019-06-07T05:45:10.016Z,20.37
2019-06-07T05:46:46.861Z,19.97
2019-06-07T05:48:23.025Z,20.10
2019-06-07T05:49:58.031Z,21.60
2019-06-07T05:51:34.724Z,20.43
2019-06-07T05:53:09.375Z,20.30
2019-06-07T05:54:46.775Z,20.47
2019-06-07T05:56:20.749Z,20.87
2019-06-07T05:57:56.054Z,20.83
2019-06-07T05:59:30.700Z,21.10
2019-06-07T06:01:41.426Z,20.20
2019-06-07T06:03:00.139Z,19.27
2019-06-07T06:04:18.998Z,21.03
2019-06-07T06:05:55.233Z,21.30
2019-06-07T06:07:30.164Z,19.93
2019-06-07T06:09:13.867Z,20.17
2019-06-07T06:10:46.811Z,20.67
2019-06-07T06:12:33.923Z,20.80
2019-06-07T06:14:06.843Z,21.20
2019-06-07T06:15:42.502Z,21.67
2019-06-07T06:17:08.651Z,21.13
2019-06-07T06:18:47.068Z,21.57
2019-06-07T06:20:20.945Z,21.00
2019-06-07T06:21:55.805Z,21.03
2019-06-07T06:23:31.397Z,22.27
2019-06-07T06:26:51.174Z,21.07
2019-06-07T06:28:21.068Z,20.03
2019-06-07T06:29:56.744Z,21.40
2019-06-07T06:31:31.553Z,21.70
2019-06-07T06:33:07.363Z,20.93
2019-06-07T06:34:46.113Z,21.57
2019-06-07T06:36:19.708Z,22.23
2019-06-07T06:37:54.660Z,21.67
2019-06-07T06:39:30.246Z,20.73
2019-06-07T06:41:15.272Z,20.53
2019-06-07T06:42:44.732Z,21.23
2019-06-07T06:44:19.532Z,21.50
2019-06-07T06:45:55.439Z,22.67
2019-06-07T06:47:30.345Z,21.57
2019-06-07T06:49:06.255Z,19.40
2019-06-07T06:50:43.600Z,20.67
2019-06-07T06:52:18.649Z,19.97
2019-06-07T06:53:53.510Z,20.90
2019-06-07T06:55:29.353Z,21.23
2019-06-07T06:57:19.242Z,20.93
2019-06-07T06:59:21.442Z,21.03
2019-06-07T07:00:20.500Z,20.00
2019-06-07T07:01:56.471Z,21.60
2019-06-07T07:03:56.444Z,21.03
2019-06-07T07:05:09.911Z,20.07
2019-06-07T07:06:47.912Z,20.83
2019-06-07T07:08:24.192Z,20.13
2019-06-07T07:10:00.236Z,21.67
2019-06-07T07:11:52.371Z,21.73
2019-06-07T07:13:12.822Z,21.53
2019-06-07T07:14:51.815Z,21.40
2019-06-07T07:16:24.972Z,21.53
2019-06-07T07:18:08.393Z,20.30
2019-06-07T07:19:37.365Z,20.33
2019-06-07T07:21:12.995Z,19.73
2019-06-07T07:22:53.055Z,20.50
2019-06-07T07:24:25.428Z,18.90
2019-06-07T07:26:00.572Z,19.93
2019-06-07T07:27:36.171Z,19.53
2019-06-07T07:29:11.058Z,19.30
2019-06-07T07:30:52.729Z,19.90
2019-06-07T07:32:26.551Z,19.23
2019-06-07T07:35:39.125Z,19.83
2019-06-07T07:37:14.765Z,20.40
2019-06-07T07:38:55.754Z,19.50
2019-06-07T07:42:20.030Z,16.97
2019-06-07T07:43:39.040Z,18.77
2019-06-07T07:45:13.617Z,20.00
2019-06-07T07:46:52.277Z,19.20
2019-06-07T07:48:25.388Z,18.13
2019-06-07T07:50:00.671Z,20.50
2019-06-07T07:51:35.119Z,20.63
2019-06-07T07:53:10.596Z,20.43
2019-06-07T07:54:46.685Z,17.63
2019-06-07T07:56:21.863Z,18.67
2019-06-07T07:58:01.393Z,18.03
2019-06-07T07:59:44.222Z,18.53
2019-06-07T08:01:11.108Z,17.47
2019-06-07T08:02:48.841Z,17.73
2019-06-07T08:04:29.454Z,17.27
2019-06-07T08:06:00.165Z,15.43
2019-06-07T08:07:34.910Z,15.23
2019-06-07T08:09:10.175Z,16.27
2019-06-07T08:10:44.640Z,15.47
2019-06-07T08:12:20.992Z,15.50
2019-06-07T08:13:58.554Z,15.93
2019-06-07T08:15:32.375Z,15.20
2019-06-07T08:17:06.805Z,14.87
2019-06-07T08:18:41.810Z,15.70
2019-06-07T08:20:16.535Z,15.00
2019-06-07T08:21:53.069Z,15.63
2019-06-07T08:23:27.595Z,14.23
2019-06-07T08:25:04.477Z,13.93
2019-06-07T08:26:38.799Z,15.73
2019-06-07T08:28:14.269Z,16.13
2019-06-07T08:30:08.887Z,14.17
2019-06-07T08:31:26.426Z,14.17
2019-06-07T08:33:23.927Z,14.23
2019-06-07T08:34:38.621Z,13.03
2019-06-07T08:36:20.258Z,13.63
2019-06-07T08:39:27.471Z,15.37
2019-06-07T08:41:11.391Z,14.77
2019-06-07T08:42:59.837Z,12.97
2019-06-07T08:44:23.743Z,12.83
2019-06-07T08:45:59.413Z,13.23
2019-06-07T08:47:29.720Z,12.70
2019-06-07T08:49:04.851Z,14.67
2019-06-07T08:50:39.966Z,14.13
2019-06-07T08:52:14.816Z,14.17
2019-06-07T08:54:08.973Z,14.27
2019-06-07T08:55:26.798Z,16.03
2019-06-07T08:57:19.298Z,15.83
2019-06-07T08:58:38.033Z,16.03
2019-06-07T09:01:49.827Z,16.33
2019-06-07T09:03:24.800Z,16.50
2019-06-07T09:05:03.245Z,15.77
2019-06-07T09:08:29.349Z,14.20
2019-06-07T09:09:49.107Z,14.37
2019-06-07T09:11:23.522Z,15.30
2019-06-07T09:13:03.470Z,15.07
2019-06-07T09:14:34.620Z,15.80
2019-06-07T09:16:09.681Z,16.97
2019-06-07T09:18:30.649Z,18.03
2019-06-07T09:19:20.986Z,18.17
2019-06-07T09:20:57.404Z,17.77
2019-06-07T09:22:32.320Z,15.83
2019-06-07T09:24:11.321Z,16.57
2019-06-07T09:25:57.150Z,16.67
2019-06-07T09:27:21.788Z,17.40
2019-06-07T09:28:58.450Z,16.57
2019-06-07T09:30:44.144Z,15.30
2019-06-07T09:32:19.164Z,16.20
2019-06-07T09:33:53.912Z,14.67
2019-06-07T09:35:28.918Z,14.87
2019-06-07T09:37:54.432Z,13.63
2019-06-07T09:38:40.900Z,14.27
2019-06-07T09:40:27.123Z,14.60
2019-06-07T09:41:56.507Z,12.70
2019-06-07T09:44:00.589Z,14.83
2019-06-07T09:45:12.227Z,14.17
2019-06-07T09:46:45.008Z,14.87
2019-06-07T09:49:08.445Z,15.60
2019-06-07T09:50:04.047Z,15.23
2019-06-07T09:51:33.542Z,15.97
2019-06-07T09:53:21.161Z,13.57
2019-06-07T09:56:21.213Z,16.33
2019-06-07T09:57:58.278Z,15.83
2019-06-07T09:59:32.579Z,16.13
2019-06-07T10:01:13.060Z,15.53
2019-06-07T10:02:43.805Z,16.37
2019-06-07T10:04:30.711Z,14.97
2019-06-07T10:05:55.118Z,13.80
2019-06-07T10:07:31.972Z,14.47
2019-06-07T10:10:44.822Z,14.47
2019-06-07T10:12:19.226Z,14.77
2019-06-07T10:13:54.187Z,13.13
2019-06-07T10:15:28.571Z,15.27
2019-06-07T10:17:05.013Z,15.20
2019-06-07T10:18:39.961Z,15.90
2019-06-07T10:20:15.326Z,15.43
2019-06-07T10:21:49.707Z,13.93
2019-06-07T10:23:24.702Z,14.37
2019-06-07T10:24:59.665Z,14.77
2019-06-07T10:26:35.112Z,14.27
2019-06-07T10:28:10.258Z,14.43
2019-06-07T10:29:45.479Z,14.40
2019-06-07T10:31:19.879Z,15.10
2019-06-07T10:32:54.855Z,16.57
2019-06-07T10:34:29.271Z,16.20
2019-06-07T10:36:04.507Z,15.93
2019-06-07T10:37:38.987Z,15.87
2019-06-07T10:39:13.969Z,15.57
2019-06-07T10:40:48.355Z,17.17
2019-06-07T10:42:23.436Z,14.97
2019-06-07T10:43:57.842Z,16.10
2019-06-07T10:45:32.826Z,16.00
2019-06-07T10:47:08.141Z,17.40
2019-06-07T10:48:43.327Z,16.70
2019-06-07T10:50:18.455Z,16.77
2019-06-07T10:51:53.551Z,15.50
2019-06-07T10:53:27.930Z,14.60
2019-06-07T10:55:02.918Z,14.53
2019-06-07T10:56:37.634Z,13.60
2019-06-07T10:58:13.251Z,13.73
2019-06-07T10:59:47.847Z,14.57
2019-06-07T11:01:22.919Z,15.73
2019-06-07T11:02:57.961Z,13.90
2019-06-07T11:04:33.051Z,14.20
2019-06-07T11:06:07.982Z,14.73
2019-06-07T11:07:43.265Z,14.97
2019-06-07T11:09:17.785Z,13.13
2019-06-07T11:10:54.711Z,13.03
2019-06-07T11:12:29.126Z,12.90
2019-06-07T11:14:04.584Z,13.30
2019-06-07T11:15:39.063Z,10.77
2019-06-07T11:17:15.702Z,11.37
2019-06-07T11:18:50.201Z,12.00
2019-06-07T11:20:25.269Z,12.23
2019-06-07T11:21:59.854Z,11.67
2019-06-07T11:23:35.114Z,12.33
2019-06-07T11:25:11.107Z,12.27
2019-06-07T11:26:46.644Z,11.93
2019-06-07T11:28:21.300Z,12.27
2019-06-07T11:29:56.303Z,10.67
2019-06-07T11:31:30.715Z,9.97
2019-06-07T11:33:06.416Z,10.40
2019-06-07T11:34:40.962Z,11.23
2019-06-07T11:36:16.021Z,10.80
2019-06-07T11:37:50.743Z,11.90
2019-06-07T11:39:26.001Z,11.10
2019-06-07T11:41:00.486Z,10.63
2019-06-07T11:42:35.723Z,10.40
2019-06-07T11:44:10.999Z,9.07
2019-06-07T11:45:46.101Z,9.03
2019-06-07T11:47:20.602Z,9.63
2019-06-07T11:48:55.580Z,9.77
2019-06-07T11:50:29.984Z,8.67
2019-06-07T11:52:05.116Z,7.63
2019-06-07T11:53:39.800Z,9.47
2019-06-07T11:55:15.886Z,9.40
2019-06-07T11:56:50.452Z,8.87
2019-06-07T11:58:25.556Z,9.10
2019-06-07T11:59:59.951Z,9.00
2019-06-07T12:01:37.281Z,10.10
2019-06-07T12:03:11.545Z,9.70
2019-06-07T12:04:46.929Z,8.97
2019-06-07T12:06:21.636Z,8.23
2019-06-07T12:07:57.253Z,8.17
2019-06-07T12:09:31.816Z,6.53
2019-06-07T12:11:08.022Z,5.80
2019-06-07T12:12:42.814Z,5.33
2019-06-07T12:14:19.245Z,5.90
2019-06-07T12:15:53.870Z,7.30
2019-06-07T12:17:28.860Z,6.30
2019-06-07T12:19:03.288Z,6.43
2019-06-07T12:20:38.307Z,6.57
2019-06-07T12:22:13.908Z,6.27
2019-06-07T12:23:49.318Z,7.17
2019-06-07T12:25:25.137Z,6.70
2019-06-07T12:27:00.326Z,5.77
2019-06-07T12:28:35.191Z,5.30
2019-06-07T12:30:20.274Z,4.83
2019-06-07T12:31:48.274Z,5.90
2019-06-07T12:33:23.674Z,5.30
2019-06-07T12:35:01.608Z,6.23
2019-06-07T12:36:37.178Z,6.13
2019-06-07T12:38:34.255Z,5.77
2019-06-07T12:40:15.687Z,5.00
2019-06-07T12:41:47.863Z,5.27
2019-06-07T12:43:23.605Z,5.80
2019-06-07T12:44:58.384Z,4.57
2019-06-07T12:46:34.350Z,5.30
2019-06-07T12:48:09.521Z,5.37
2019-06-07T12:49:44.750Z,5.30
2019-06-07T12:51:23.367Z,4.90
2019-06-07T12:53:24.930Z,4.60
2019-06-07T12:55:18.186Z,4.00
2019-06-07T13:00:36.533Z,3.77
2019-06-07T13:07:21.960Z,4.57
2019-06-07T13:08:47.197Z,4.50
2019-06-07T13:13:57.811Z,4.13
2019-06-07T13:18:42.674Z,4.27
2019-06-07T13:24:25.269Z,4.03
2019-06-07T13:26:18.480Z,4.43
2019-06-07T13:28:07.710Z,4.60
2019-06-07T13:29:47.356Z,4.27
2019-06-07T13:31:47.264Z,4.53
2019-06-07T13:33:33.950Z,4.53
2019-06-07T13:33:55.908Z,4.57
2019-06-07T13:36:06.751Z,4.60
2019-06-07T13:37:25.380Z,4.70
2019-06-07T13:39:00.773Z,4.63
2019-06-07T13:40:38.874Z,4.57
2019-06-07T13:42:18.334Z,4.47
2019-06-07T13:44:02.113Z,4.87
2019-06-07T13:45:38.037Z,4.63
2019-06-07T13:47:13.061Z,4.70
2019-06-07T13:48:49.113Z,4.70
2019-06-07T13:50:28.249Z,4.97
2019-06-07T13:52:04.517Z,5.00
2019-06-07T13:53:39.340Z,5.20
2019-06-07T13:55:15.650Z,5.00
2019-06-07T13:57:02.291Z,4.97
2019-06-07T13:58:28.697Z,5.23
2019-06-07T14:00:10.411Z,5.27
2019-06-07T14:01:42.578Z,5.10
2019-06-07T14:03:20.733Z,5.47
2019-06-07T14:04:53.707Z,4.93
2019-06-07T14:06:30.244Z,5.40
2019-06-07T14:08:06.377Z,5.10
2019-06-07T14:09:41.255Z,5.47
2019-06-07T14:11:17.215Z,5.30
2019-06-07T14:12:51.811Z,5.37
2019-06-07T14:14:28.987Z,5.83
2019-06-07T14:16:04.100Z,5.47
2019-06-07T14:17:39.878Z,5.73
2019-06-07T14:19:15.134Z,5.83
2019-06-07T14:20:50.530Z,5.73
2019-06-07T14:22:26.778Z,5.97
2019-06-07T14:24:02.333Z,5.97
2019-06-07T14:25:37.597Z,6.10
2019-06-07T14:27:13.299Z,5.63
2019-06-07T14:28:48.466Z,6.00
2019-06-07T14:30:24.296Z,5.80
2019-06-07T14:31:59.541Z,5.70
2019-06-07T14:33:34.917Z,5.87
2019-06-07T14:35:10.797Z,5.33
2019-06-07T14:36:46.191Z,6.00
2019-06-07T14:38:21.179Z,5.43
2019-06-07T14:39:56.817Z,6.30
2019-06-07T14:41:32.199Z,5.60
2019-06-07T14:43:08.988Z,6.23
2019-06-07T14:44:44.239Z,5.87
2019-06-07T14:46:20.136Z,5.70
2019-06-07T14:47:55.410Z,5.90
2019-06-07T14:49:30.808Z,6.10
2019-06-07T14:51:06.176Z,5.97
2019-06-07T14:52:41.590Z,5.70
2019-06-07T14:54:16.582Z,6.23
2019-06-07T14:55:51.956Z,6.23
2019-06-07T14:57:27.035Z,5.87
2019-06-07T14:59:02.454Z,6.00
2019-06-07T15:00:42.234Z,6.07
2019-06-07T15:02:17.892Z,5.50
2019-06-07T15:03:52.758Z,5.93
2019-06-07T15:05:32.924Z,5.93
2019-06-07T15:07:09.680Z,5.73
2019-06-07T15:08:45.792Z,5.70
2019-06-07T15:10:20.651Z,6.20
2019-06-07T15:11:56.544Z,6.00
2019-06-07T15:13:31.627Z,5.80
2019-06-07T15:15:09.540Z,6.40
2019-06-07T15:16:44.330Z,5.93
2019-06-07T15:18:19.985Z,6.47
2019-06-07T15:19:54.790Z,6.97
2019-06-07T15:21:30.836Z,6.40
2019-06-07T15:23:05.925Z,7.00
2019-06-07T15:24:41.607Z,6.93
2019-06-07T15:26:16.414Z,7.20
2019-06-07T15:27:52.003Z,7.30
2019-06-07T15:29:27.451Z,6.63
2019-06-07T15:31:03.198Z,6.30
2019-06-07T15:32:39.448Z,7.03
2019-06-07T15:34:15.563Z,6.73
2019-06-07T15:35:50.392Z,7.47
2019-06-07T15:37:26.216Z,7.37
2019-06-07T15:39:01.019Z,6.70
2019-06-07T15:40:37.537Z,6.27
2019-06-07T15:42:12.781Z,6.90
2019-06-07T15:43:48.391Z,7.73
2019-06-07T15:45:23.521Z,7.10
2019-06-07T15:46:59.113Z,6.87
2019-06-07T15:48:34.169Z,7.00
2019-06-07T15:50:11.081Z,7.30
2019-06-07T15:51:46.190Z,7.47
2019-06-07T15:53:21.749Z,6.97
2019-06-07T15:54:57.382Z,7.10
2019-06-07T15:56:32.943Z,7.10
2019-06-07T15:58:07.830Z,6.97
2019-06-07T15:59:43.671Z,6.50
2019-06-07T16:01:18.591Z,6.37
2019-06-07T16:02:54.232Z,6.63
2019-06-07T16:04:29.323Z,6.93
2019-06-07T16:06:05.038Z,6.80
2019-06-07T16:07:40.555Z,7.10
2019-06-07T16:09:16.913Z,6.93
2019-06-07T16:10:51.974Z,6.40
2019-06-07T16:12:27.655Z,6.90
2019-06-07T16:14:02.747Z,7.10
2019-06-07T16:15:39.158Z,7.10
2019-06-07T16:17:14.059Z,6.73
2019-06-07T16:18:49.678Z,6.87
2019-06-07T16:20:24.679Z,7.50
2019-06-07T16:21:59.671Z,6.87
2019-06-07T16:23:34.043Z,7.27
2019-06-07T16:25:11.465Z,6.40
2019-06-07T16:26:47.052Z,7.23
2019-06-07T16:28:22.440Z,7.03
2019-06-07T16:29:57.523Z,7.03
2019-06-07T16:31:33.037Z,7.23
2019-06-07T16:33:08.206Z,7.13
2019-06-07T16:34:43.950Z,7.60
2019-06-07T16:36:19.815Z,7.57
2019-06-07T16:37:55.261Z,7.47
2019-06-07T16:39:30.443Z,7.40
2019-06-07T16:41:06.169Z,7.90
2019-06-07T16:42:42.710Z,7.80
2019-06-07T16:44:18.317Z,7.70
2019-06-07T16:45:53.426Z,7.57
2019-06-07T16:47:28.815Z,8.53
2019-06-07T16:49:03.805Z,8.30
2019-06-07T16:50:39.262Z,8.50
2019-06-07T16:52:14.285Z,8.60
2019-06-07T16:53:49.892Z,8.07
2019-06-07T16:55:25.358Z,8.20
2019-06-07T16:57:00.790Z,8.37
2019-06-07T16:58:35.815Z,8.20
2019-06-07T17:00:12.055Z,8.20
2019-06-07T17:01:47.387Z,8.23
2019-06-07T17:03:22.790Z,8.73
2019-06-07T17:04:57.937Z,8.57
2019-06-07T17:06:33.415Z,8.90
2019-06-07T17:08:08.460Z,8.43
2019-06-07T17:09:45.716Z,8.90
2019-06-07T17:11:20.841Z,8.43
2019-06-07T17:12:56.661Z,8.80
2019-06-07T17:14:31.765Z,8.47
2019-06-07T17:16:07.492Z,8.30
2019-06-07T17:17:43.133Z,9.00
2019-06-07T17:19:18.575Z,8.93
2019-06-07T17:20:53.843Z,8.30
2019-06-07T17:22:29.255Z,8.97
2019-06-07T17:24:04.387Z,9.27
2019-06-07T17:25:41.232Z,8.27
2019-06-07T17:27:16.690Z,8.77
2019-06-07T17:28:52.116Z,8.80
2019-06-07T17:30:27.299Z,9.47
2019-06-07T17:32:03.262Z,9.10
2019-06-07T17:33:38.249Z,9.00
2019-06-07T17:35:14.361Z,9.50
2019-06-07T17:36:50.718Z,10.07
2019-06-07T17:38:26.438Z,9.37
2019-06-07T17:40:01.433Z,9.40
2019-06-07T17:41:50.546Z,9.60
2019-06-07T17:43:14.131Z,9.57
2019-06-07T17:44:49.574Z,9.60
2019-06-07T17:46:24.945Z,9.70
2019-06-07T17:48:00.416Z,9.20
2019-06-07T17:49:35.708Z,8.90
2019-06-07T17:51:11.269Z,9.17
2019-06-07T17:52:46.252Z,8.97
2019-06-07T17:54:21.684Z,9.83
2019-06-07T17:55:56.985Z,10.07
2019-06-07T17:57:32.410Z,8.77
2019-06-07T17:59:07.506Z,9.53
2019-06-07T18:00:51.278Z,8.90
2019-06-07T18:02:27.031Z,9.00
2019-06-07T18:04:03.695Z,10.17
2019-06-07T18:05:39.362Z,9.70
2019-06-07T18:07:16.120Z,9.40
2019-06-07T18:08:53.803Z,9.30
2019-06-07T18:10:39.719Z,9.13
2019-06-07T18:12:15.571Z,8.80
2019-06-07T18:14:06.849Z,8.67
2019-06-07T18:15:39.224Z,9.83
2019-06-07T18:17:14.810Z,9.70
2019-06-07T18:18:50.674Z,9.57
2019-06-07T18:20:26.305Z,9.93
2019-06-07T18:22:01.167Z,9.70
2019-06-07T18:23:36.846Z,10.57
2019-06-07T18:25:12.010Z,10.50
2019-06-07T18:26:48.446Z,9.77
2019-06-07T18:28:23.322Z,10.23
2019-06-07T18:29:59.458Z,10.57
2019-06-07T18:31:34.803Z,9.83
2019-06-07T18:33:10.061Z,9.40
2019-06-07T18:34:44.747Z,9.60
2019-06-07T18:36:19.715Z,11.27
2019-06-07T18:37:55.171Z,11.30
2019-06-07T18:39:30.511Z,10.53
2019-06-07T18:41:05.031Z,10.63
2019-06-07T18:42:40.247Z,11.27
2019-06-07T18:44:21.608Z,11.60
2019-06-07T18:45:51.663Z,11.30
2019-06-07T18:47:26.070Z,11.10
2019-06-07T18:49:01.074Z,11.73
2019-06-07T18:50:36.198Z,10.90
2019-06-07T18:52:20.847Z,11.17
2019-06-07T18:53:55.914Z,11.87
2019-06-07T18:55:30.310Z,11.87
2019-06-07T18:57:05.378Z,10.17
2019-06-07T18:58:40.064Z,11.60
2019-06-07T19:00:17.288Z,11.57
2019-06-07T19:01:53.577Z,10.80
2019-06-07T19:03:29.675Z,11.70
2019-06-07T19:05:05.728Z,11.67
2019-06-07T19:06:41.177Z,11.47
2019-06-07T19:08:16.330Z,11.80
2019-06-07T19:09:52.626Z,11.07
2019-06-07T19:11:27.702Z,11.90
2019-06-07T19:13:04.461Z,11.67
2019-06-07T19:14:38.973Z,11.60
2019-06-07T19:16:14.114Z,12.27
2019-06-07T19:17:49.741Z,12.13
2019-06-07T19:19:25.045Z,11.23
2019-06-07T19:21:00.636Z,12.73
2019-06-07T19:22:35.925Z,11.70
2019-06-07T19:24:10.693Z,11.10
2019-06-07T19:25:46.381Z,11.30
2019-06-07T19:27:21.485Z,12.03
2019-06-07T19:28:57.076Z,11.70
2019-06-07T19:30:31.885Z,12.03
2019-06-07T19:32:07.499Z,12.90
2019-06-07T19:33:49.197Z,12.90
2019-06-07T19:35:19.245Z,12.90
2019-06-07T19:36:53.655Z,13.03
2019-06-07T19:38:28.687Z,12.30
2019-06-07T19:40:03.140Z,12.43
2019-06-07T19:41:38.523Z,12.57
2019-06-07T19:43:13.527Z,12.53
2019-06-07T19:44:54.289Z,13.23
2019-06-07T19:46:26.168Z,13.47
2019-06-07T19:48:02.693Z,13.23
2019-06-07T19:49:38.379Z,12.47
2019-06-07T19:51:14.013Z,13.27
2019-06-07T19:52:49.192Z,13.73
2019-06-07T19:54:24.577Z,13.63
2019-06-07T19:55:59.579Z,14.03
2019-06-07T19:57:34.731Z,14.13
2019-06-07T19:59:09.382Z,14.37
2019-06-07T20:00:44.387Z,14.53
2019-06-07T20:02:18.763Z,12.80
2019-06-07T20:03:53.843Z,15.00
2019-06-07T20:05:28.359Z,15.20
2019-06-07T20:07:05.491Z,14.00
2019-06-07T20:08:39.634Z,13.13
2019-06-07T20:10:15.847Z,14.37
2019-06-07T20:11:50.240Z,14.97
2019-06-07T20:13:25.372Z,13.57
2019-06-07T20:15:18.815Z,13.13
2019-06-07T20:16:36.472Z,14.30
2019-06-07T20:18:11.028Z,15.00
2019-06-07T20:19:46.024Z,15.23
2019-06-07T20:21:20.572Z,15.10
2019-06-07T20:22:56.548Z,15.20
2019-06-07T20:24:31.621Z,14.73
2019-06-07T20:26:06.868Z,16.53
2019-06-07T20:27:41.344Z,15.27
2019-06-07T20:29:25.989Z,15.93
2019-06-07T20:30:52.491Z,16.50
2019-06-07T20:32:27.484Z,15.60
2019-06-07T20:34:03.859Z,16.10
2019-06-07T20:35:38.595Z,15.43
2019-06-07T20:37:13.019Z,16.27
2019-06-07T20:38:48.071Z,15.93
2019-06-07T20:40:24.865Z,15.63
2019-06-07T20:41:59.622Z,15.77
2019-06-07T20:43:34.090Z,14.97
2019-06-07T20:45:09.723Z,16.63
2019-06-07T20:46:44.194Z,16.03
2019-06-07T20:48:19.195Z,16.40
2019-06-07T20:49:53.715Z,16.73
2019-06-07T20:51:29.172Z,17.00
2019-06-07T20:53:05.134Z,17.00
2019-06-07T20:54:40.266Z,17.80
2019-06-07T20:56:14.944Z,17.80
2019-06-07T20:57:49.962Z,16.67
2019-06-07T20:59:24.622Z,16.83
2019-06-07T21:01:00.571Z,16.73
2019-06-07T21:02:35.043Z,16.20
2019-06-07T21:04:10.387Z,15.90
2019-06-07T21:05:45.283Z,16.53
2019-06-07T21:07:20.254Z,17.00
2019-06-07T21:08:54.639Z,16.40
2019-06-07T21:10:29.891Z,16.93
2019-06-07T21:12:04.342Z,17.43
2019-06-07T21:13:39.314Z,16.87
2019-06-07T21:15:14.634Z,17.30
2019-06-07T21:16:49.959Z,16.03
2019-06-07T21:18:24.343Z,16.40
2019-06-07T21:20:00.519Z,15.43
2019-06-07T21:21:35.040Z,15.80